Time;durP1;ratioP1;P1;durP2;ratioP2;P2;SDS_P1;SDS_P2;PMS_P1;PMS_P2;Temp;Humidity;BMP_temperature;BMP_pressure;BME280_temperature;BME280_humidity;BME280_pressure;Samples;Min_cycle;Max_cycle;Signal;HPM_P1;HPM_P2
2022/05/15 00:01:27;;;;;;;23.97;22.17;;;;;;;;;;5036053;28;20429;-87
2022/05/15 00:03:55;;;;;;;24.10;21.93;;;;;;;;;;5035235;28;21005;-86
2022/05/15 00:06:22;;;;;;;22.87;20.67;;;;;;;;;;5035963;28;20506;-86
2022/05/15 00:08:49;;;;;;;22.57;21.03;;;;;;;;;;5035629;28;20452;-86
2022/05/15 00:11:18;;;;;;;22.60;20.80;;;;;;;;;;5035790;28;20415;-86
2022/05/15 00:13:45;;;;;;;22.37;20.63;;;;;;;;;;5035666;28;20484;-86
2022/05/15 00:16:13;;;;;;;23.07;21.57;;;;;;;;;;5035665;28;20442;-87
2022/05/15 00:18:43;;;;;;;24.23;22.03;;;;;;;;;;5035532;28;20459;-87
2022/05/15 00:21:10;;;;;;;22.67;21.17;;;;;;;;;;5017721;28;20476;-87
2022/05/15 00:23:38;;;;;;;22.90;21.23;;;;;;;;;;5035839;28;20449;-87
2022/05/15 00:26:06;;;;;;;22.80;21.07;;;;;;;;;;5035360;28;20415;-87
2022/05/15 00:28:33;;;;;;;22.70;20.97;;;;;;;;;;5017964;28;20509;-87
2022/05/15 00:31:00;;;;;;;23.00;21.43;;;;;;;;;;5035501;28;20422;-86
2022/05/15 00:33:28;;;;;;;22.67;20.80;;;;;;;;;;5035318;28;20411;-84
2022/05/15 00:35:57;;;;;;;23.20;21.50;;;;;;;;;;5035220;28;20437;-86
2022/05/15 00:38:24;;;;;;;22.63;20.67;;;;;;;;;;5017247;28;21051;-86
2022/05/15 00:40:52;;;;;;;22.53;20.80;;;;;;;;;;5035157;28;20436;-87
2022/05/15 00:43:34;;;;;;;23.57;21.50;;;;;;;;;;5035378;28;20445;-86
2022/05/15 00:46:02;;;;;;;22.13;20.50;;;;;;;;;;5034954;28;20492;-87
2022/05/15 00:48:29;;;;;;;22.40;20.77;;;;;;;;;;5035283;28;20415;-87
2022/05/15 00:50:58;;;;;;;22.83;21.17;;;;;;;;;;5034968;28;20788;-87
2022/05/15 00:53:26;;;;;;;21.70;20.43;;;;;;;;;;5035201;28;20454;-86
2022/05/15 00:55:54;;;;;;;22.33;20.80;;;;;;;;;;5034840;28;20781;-87
2022/05/15 00:58:24;;;;;;;22.27;20.77;;;;;;;;;;5034817;28;20434;-87
2022/05/15 01:00:52;;;;;;;22.50;20.83;;;;;;;;;;5034862;28;20459;-86
2022/05/15 01:03:21;;;;;;;22.00;20.60;;;;;;;;;;5034722;28;20563;-86
2022/05/15 01:05:50;;;;;;;22.60;21.10;;;;;;;;;;5017617;28;20469;-86
2022/05/15 01:08:19;;;;;;;22.77;21.13;;;;;;;;;;5034883;28;20431;-86
2022/05/15 01:10:48;;;;;;;22.97;20.90;;;;;;;;;;5034668;28;20406;-87
2022/05/15 01:13:15;;;;;;;21.87;20.33;;;;;;;;;;5018441;28;20448;-86
2022/05/15 01:15:44;;;;;;;22.60;21.00;;;;;;;;;;5035730;28;20453;-86
2022/05/15 01:18:11;;;;;;;23.17;21.43;;;;;;;;;;5035646;28;20456;-87
2022/05/15 01:20:39;;;;;;;22.73;21.20;;;;;;;;;;5034158;28;20465;-87
2022/05/15 01:23:09;;;;;;;22.57;20.87;;;;;;;;;;5034406;28;20423;-87
2022/05/15 01:25:37;;;;;;;22.10;20.50;;;;;;;;;;5034366;28;20462;-87
2022/05/15 01:28:06;;;;;;;22.00;20.33;;;;;;;;;;5034708;28;20415;-93
2022/05/15 01:30:34;;;;;;;22.17;20.57;;;;;;;;;;5035889;28;20444;-88
2022/05/15 01:33:02;;;;;;;23.37;21.57;;;;;;;;;;5034716;28;20471;-86
2022/05/15 01:35:29;;;;;;;22.50;20.90;;;;;;;;;;5034336;28;20414;-86
2022/05/15 01:37:57;;;;;;;22.67;20.93;;;;;;;;;;5034611;28;20912;-86
2022/05/15 01:40:25;;;;;;;22.60;21.20;;;;;;;;;;5034473;28;20799;-86
2022/05/15 01:42:53;;;;;;;21.83;20.23;;;;;;;;;;5034186;28;20451;-87
2022/05/15 01:45:20;;;;;;;21.30;20.00;;;;;;;;;;5034344;28;20455;-87
2022/05/15 01:47:49;;;;;;;23.13;20.70;;;;;;;;;;5034841;28;20445;-86
2022/05/15 01:50:16;;;;;;;22.43;21.03;;;;;;;;;;5034380;28;20455;-88
2022/05/15 01:52:44;;;;;;;21.73;20.40;;;;;;;;;;5033888;28;20458;-87
2022/05/15 01:55:12;;;;;;;23.10;21.50;;;;;;;;;;5034187;28;20427;-88
2022/05/15 01:57:41;;;;;;;22.80;21.10;;;;;;;;;;5034409;28;20494;-87
2022/05/15 02:00:09;;;;;;;23.03;21.47;;;;;;;;;;5034521;28;20410;-87
2022/05/15 02:02:37;;;;;;;21.93;20.37;;;;;;;;;;5035292;28;20423;-87
2022/05/15 02:05:05;;;;;;;22.30;20.67;;;;;;;;;;5034349;28;20545;-87
2022/05/15 02:07:32;;;;;;;22.77;21.00;;;;;;;;;;5034371;28;20805;-87
2022/05/15 02:10:00;;;;;;;21.30;19.90;;;;;;;;;;5034108;28;20470;-87
2022/05/15 02:12:27;;;;;;;21.87;20.37;;;;;;;;;;5033783;28;20436;-87
2022/05/15 02:14:56;;;;;;;21.93;20.50;;;;;;;;;;5034334;28;20448;-87
2022/05/15 02:17:23;;;;;;;22.40;20.90;;;;;;;;;;5033882;28;20444;-87
2022/05/15 02:19:50;;;;;;;22.40;20.60;;;;;;;;;;5033561;28;20464;-87
2022/05/15 02:22:18;;;;;;;21.40;20.10;;;;;;;;;;5034950;28;20490;-88
2022/05/15 02:24:45;;;;;;;21.53;20.27;;;;;;;;;;5034833;28;20495;-88
2022/05/15 02:27:13;;;;;;;22.50;21.10;;;;;;;;;;5036810;28;20429;-88
2022/05/15 02:29:40;;;;;;;23.27;21.10;;;;;;;;;;5038215;28;20786;-88
2022/05/15 02:32:10;;;;;;;23.27;21.53;;;;;;;;;;5037748;28;20448;-87
2022/05/15 02:34:37;;;;;;;23.20;21.47;;;;;;;;;;5037994;28;20440;-88
2022/05/15 02:37:05;;;;;;;23.33;21.43;;;;;;;;;;5037814;28;20465;-87
2022/05/15 02:39:32;;;;;;;21.60;20.30;;;;;;;;;;5037957;28;20426;-87
2022/05/15 02:42:01;;;;;;;23.03;21.07;;;;;;;;;;5037718;28;20406;-88
2022/05/15 02:44:29;;;;;;;21.27;19.60;;;;;;;;;;5037684;28;20881;-88
2022/05/15 02:46:56;;;;;;;22.37;20.67;;;;;;;;;;5037343;28;20461;-87
2022/05/15 02:52:10;;;;;;;21.67;20.27;;;;;;;;;;5038333;28;20426;-88
2022/05/15 02:54:37;;;;;;;21.67;20.37;;;;;;;;;;5038243;28;20432;-88
2022/05/15 02:57:05;;;;;;;20.70;19.40;;;;;;;;;;5038098;28;20433;-88
2022/05/15 02:59:33;;;;;;;22.97;21.20;;;;;;;;;;5037752;28;20948;-88
2022/05/15 03:02:01;;;;;;;21.90;20.43;;;;;;;;;;5038367;28;20428;-88
2022/05/15 03:04:30;;;;;;;22.53;21.03;;;;;;;;;;5037863;28;20776;-88
2022/05/15 03:07:00;;;;;;;22.80;21.00;;;;;;;;;;5038188;28;20436;-87
2022/05/15 03:09:27;;;;;;;22.83;21.17;;;;;;;;;;5038001;28;20418;-87
2022/05/15 03:11:54;;;;;;;22.30;20.90;;;;;;;;;;5041074;28;20419;-87
2022/05/15 03:14:22;;;;;;;23.40;21.53;;;;;;;;;;5039443;28;20436;-88
2022/05/15 03:16:49;;;;;;;22.23;21.00;;;;;;;;;;5038175;28;20477;-87
2022/05/15 03:19:16;;;;;;;22.30;20.90;;;;;;;;;;5038484;28;20440;-88
2022/05/15 03:21:45;;;;;;;23.03;21.33;;;;;;;;;;5038277;28;20487;-87
2022/05/15 03:24:14;;;;;;;21.77;20.27;;;;;;;;;;5038831;28;20407;-88
2022/05/15 03:26:42;;;;;;;23.20;21.17;;;;;;;;;;5019711;28;20553;-88
2022/05/15 03:29:10;;;;;;;22.20;20.63;;;;;;;;;;5036907;28;20437;-88
2022/05/15 03:31:39;;;;;;;23.00;21.30;;;;;;;;;;5037521;28;20455;-88
2022/05/15 03:34:07;;;;;;;23.33;21.57;;;;;;;;;;5019002;28;20527;-88
2022/05/15 03:36:34;;;;;;;22.87;21.03;;;;;;;;;;5036597;28;20457;-89
2022/05/15 03:39:03;;;;;;;22.03;20.70;;;;;;;;;;5036051;28;20463;-88
2022/05/15 03:41:31;;;;;;;21.47;20.13;;;;;;;;;;5036426;28;20912;-88
2022/05/15 03:43:58;;;;;;;21.73;20.40;;;;;;;;;;5019110;28;20831;-87
2022/05/15 03:46:25;;;;;;;22.50;20.90;;;;;;;;;;5036751;28;20482;-88
2022/05/15 03:48:54;;;;;;;23.53;21.87;;;;;;;;;;5036691;28;20411;-88
2022/05/15 03:51:22;;;;;;;21.33;20.03;;;;;;;;;;5037027;28;20447;-88
2022/05/15 03:53:50;;;;;;;22.30;20.60;;;;;;;;;;5036951;28;20468;-88
2022/05/15 03:56:49;;;;;;;22.60;20.70;;;;;;;;;;5037063;28;20538;-88
2022/05/15 03:59:06;;;;;;;22.40;20.70;;;;;;;;;;5037735;28;20444;-88
2022/05/15 04:01:33;;;;;;;22.57;20.80;;;;;;;;;;5038260;28;20415;-88
2022/05/15 04:04:01;;;;;;;21.43;20.13;;;;;;;;;;5040389;28;20437;-88
2022/05/15 04:06:29;;;;;;;21.57;19.97;;;;;;;;;;5035853;28;20488;-88
2022/05/15 04:08:56;;;;;;;22.73;20.63;;;;;;;;;;5036233;28;20445;-88
2022/05/15 04:11:25;;;;;;;22.53;20.70;;;;;;;;;;5040086;28;20820;-88
2022/05/15 04:13:52;;;;;;;22.17;20.70;;;;;;;;;;5037201;28;20444;-88
2022/05/15 04:16:19;;;;;;;22.73;21.20;;;;;;;;;;5018387;28;20452;-88
2022/05/15 04:18:47;;;;;;;21.40;20.10;;;;;;;;;;5035612;28;20487;-89
2022/05/15 04:21:14;;;;;;;22.13;20.53;;;;;;;;;;5035656;28;20450;-88
2022/05/15 04:23:41;;;;;;;22.57;20.57;;;;;;;;;;5035781;28;20464;-88
2022/05/15 04:26:09;;;;;;;21.67;20.27;;;;;;;;;;5035704;28;20464;-88
2022/05/15 04:28:38;;;;;;;22.07;20.27;;;;;;;;;;5035765;28;20421;-88
2022/05/15 04:31:05;;;;;;;21.67;20.20;;;;;;;;;;5035615;28;20923;-88
2022/05/15 04:33:34;;;;;;;22.87;20.80;;;;;;;;;;5036138;28;20815;-88
2022/05/15 04:36:01;;;;;;;22.60;20.83;;;;;;;;;;5036096;28;20441;-88
2022/05/15 04:38:29;;;;;;;23.53;21.13;;;;;;;;;;5036014;28;20441;-88
2022/05/15 04:40:56;;;;;;;21.00;19.70;;;;;;;;;;5036566;28;20788;-88
2022/05/15 04:43:23;;;;;;;21.37;19.90;;;;;;;;;;5035629;28;20436;-88
2022/05/15 04:45:52;;;;;;;23.33;21.50;;;;;;;;;;5035419;28;20495;-88
2022/05/15 04:48:20;;;;;;;23.87;22.30;;;;;;;;;;5035073;28;20451;-88
2022/05/15 04:50:47;;;;;;;21.80;20.40;;;;;;;;;;5034093;28;20440;-88
2022/05/15 04:53:14;;;;;;;22.60;21.10;;;;;;;;;;5035620;28;20450;-88
2022/05/15 04:55:42;;;;;;;22.83;21.43;;;;;;;;;;5035479;28;20491;-88
2022/05/15 04:58:09;;;;;;;23.33;21.80;;;;;;;;;;5035388;28;20430;-88
2022/05/15 05:00:37;;;;;;;22.50;21.20;;;;;;;;;;5035036;28;20419;-88
2022/05/15 05:03:06;;;;;;;23.20;21.43;;;;;;;;;;5035315;28;20509;-88
2022/05/15 05:05:34;;;;;;;24.80;22.47;;;;;;;;;;5035103;28;20484;-88
2022/05/15 05:08:02;;;;;;;23.40;21.90;;;;;;;;;;5035458;28;20456;-88
2022/05/15 05:10:29;;;;;;;21.47;20.17;;;;;;;;;;5035222;28;20450;-88
2022/05/15 05:12:56;;;;;;;22.53;20.93;;;;;;;;;;5035199;28;20924;-88
2022/05/15 05:15:24;;;;;;;22.60;21.03;;;;;;;;;;5035625;28;20450;-88
2022/05/15 05:17:51;;;;;;;21.53;20.33;;;;;;;;;;5034828;28;20430;-88
2022/05/15 05:20:20;;;;;;;22.83;21.20;;;;;;;;;;5034977;28;20454;-88
2022/05/15 05:22:47;;;;;;;23.07;21.20;;;;;;;;;;5035125;28;20452;-87
2022/05/15 05:25:15;;;;;;;22.60;21.20;;;;;;;;;;5034778;28;20760;-88
2022/05/15 05:27:43;;;;;;;22.47;20.97;;;;;;;;;;5034833;28;20451;-88
2022/05/15 05:30:12;;;;;;;23.13;21.73;;;;;;;;;;5034855;28;20429;-88
2022/05/15 05:32:40;;;;;;;22.47;21.07;;;;;;;;;;5036018;28;20437;-88
2022/05/15 05:35:08;;;;;;;23.53;21.50;;;;;;;;;;5045433;28;20435;-88
2022/05/15 05:37:37;;;;;;;22.90;21.30;;;;;;;;;;5034892;28;20439;-88
2022/05/15 05:40:04;;;;;;;22.57;21.00;;;;;;;;;;5034485;28;20436;-88
2022/05/15 05:42:32;;;;;;;22.07;20.77;;;;;;;;;;5034778;28;20475;-88
2022/05/15 05:45:00;;;;;;;22.20;20.67;;;;;;;;;;5034412;28;20460;-87
2022/05/15 05:47:28;;;;;;;22.80;21.00;;;;;;;;;;5034886;28;20622;-88
2022/05/15 05:49:56;;;;;;;22.00;20.70;;;;;;;;;;5034331;28;20424;-88
2022/05/15 05:52:24;;;;;;;23.33;21.50;;;;;;;;;;5016241;28;20468;-88
2022/05/15 05:54:53;;;;;;;22.40;21.10;;;;;;;;;;5034624;28;20486;-88
2022/05/15 05:57:21;;;;;;;22.57;20.80;;;;;;;;;;5016416;28;20464;-88
2022/05/15 05:59:48;;;;;;;22.47;20.80;;;;;;;;;;5034368;28;20434;-88
2022/05/15 06:02:15;;;;;;;22.53;21.03;;;;;;;;;;5033709;28;20430;-88
2022/05/15 06:04:44;;;;;;;23.10;21.27;;;;;;;;;;5034204;28;20445;-88
2022/05/15 06:07:13;;;;;;;22.23;20.43;;;;;;;;;;5035136;28;20459;-88
2022/05/15 06:09:42;;;;;;;21.97;20.47;;;;;;;;;;5034774;28;20427;-89
2022/05/15 06:12:13;;;;;;;22.30;20.80;;;;;;;;;;5034366;28;20772;-88
2022/05/15 06:14:40;;;;;;;22.90;21.37;;;;;;;;;;5034998;28;20470;-88
2022/05/15 06:17:08;;;;;;;22.97;21.20;;;;;;;;;;5034202;28;20419;-89
2022/05/15 06:19:35;;;;;;;23.30;21.60;;;;;;;;;;5034023;28;20747;-88
2022/05/15 06:22:02;;;;;;;23.77;22.07;;;;;;;;;;5033735;28;20456;-88
2022/05/15 06:24:30;;;;;;;22.07;20.77;;;;;;;;;;5033710;28;20448;-88
2022/05/15 06:26:58;;;;;;;22.83;21.23;;;;;;;;;;5033925;28;20545;-89
2022/05/15 06:29:27;;;;;;;21.80;20.50;;;;;;;;;;5033803;28;20419;-89
2022/05/15 06:31:55;;;;;;;23.17;21.50;;;;;;;;;;5016366;28;20426;-89
2022/05/15 06:34:22;;;;;;;22.77;21.17;;;;;;;;;;5033865;28;20451;-89
2022/05/15 06:36:50;;;;;;;22.53;21.10;;;;;;;;;;5016629;28;20448;-88
2022/05/15 06:39:18;;;;;;;22.40;21.10;;;;;;;;;;5034542;28;20416;-89
2022/05/15 06:41:49;;;;;;;22.50;20.70;;;;;;;;;;5034845;28;20432;-89
2022/05/15 06:44:17;;;;;;;24.03;22.07;;;;;;;;;;5034572;28;20918;-88
2022/05/15 06:46:46;;;;;;;23.60;22.00;;;;;;;;;;5034681;28;20972;-88
2022/05/15 06:49:14;;;;;;;22.53;21.20;;;;;;;;;;5035753;28;20468;-88
2022/05/15 06:51:41;;;;;;;22.67;20.90;;;;;;;;;;5033919;28;20430;-88
2022/05/15 06:54:09;;;;;;;22.97;21.33;;;;;;;;;;5033536;28;20908;-88
2022/05/15 06:59:21;;;;;;;23.10;21.07;;;;;;;;;;5033768;28;20403;-90
2022/05/15 07:01:50;;;;;;;23.60;21.90;;;;;;;;;;5015939;28;20844;-91
2022/05/15 07:04:18;;;;;;;22.77;21.10;;;;;;;;;;5033147;28;20489;-89
2022/05/15 07:06:45;;;;;;;22.97;21.27;;;;;;;;;;5033681;28;20484;-89
2022/05/15 07:09:12;;;;;;;23.30;21.70;;;;;;;;;;5033910;28;20432;-89
2022/05/15 07:11:40;;;;;;;22.87;21.33;;;;;;;;;;5033815;28;20432;-88
2022/05/15 07:14:08;;;;;;;22.50;21.00;;;;;;;;;;5036207;28;20765;-89
2022/05/15 07:16:36;;;;;;;23.80;22.20;;;;;;;;;;5019510;28;20423;-89
2022/05/15 07:19:05;;;;;;;22.70;21.07;;;;;;;;;;5036382;28;20980;-90
2022/05/15 07:21:32;;;;;;;23.83;22.00;;;;;;;;;;5036675;28;20528;-89
2022/05/15 07:23:59;;;;;;;23.17;21.77;;;;;;;;;;5036405;28;20936;-89
2022/05/15 07:26:27;;;;;;;22.23;20.90;;;;;;;;;;5019146;28;20466;-90
2022/05/15 07:28:54;;;;;;;22.87;21.27;;;;;;;;;;5036755;28;20418;-90
2022/05/15 07:31:22;;;;;;;22.73;20.93;;;;;;;;;;5037337;28;20415;-89
2022/05/15 07:33:50;;;;;;;23.60;21.93;;;;;;;;;;5036855;28;20431;-89
2022/05/15 07:36:19;;;;;;;23.83;22.13;;;;;;;;;;5036535;28;20893;-85
2022/05/15 07:38:46;;;;;;;23.70;21.90;;;;;;;;;;5035876;28;20443;-85
2022/05/15 07:41:14;;;;;;;24.93;22.93;;;;;;;;;;5035752;28;20445;-84
2022/05/15 07:43:41;;;;;;;24.90;22.90;;;;;;;;;;5035240;28;20441;-84
2022/05/15 07:46:09;;;;;;;22.60;21.27;;;;;;;;;;5035345;28;20570;-83
2022/05/15 07:48:36;;;;;;;23.63;22.20;;;;;;;;;;5035543;28;20432;-80
2022/05/15 07:51:04;;;;;;;23.93;22.27;;;;;;;;;;5035337;28;20436;-83
2022/05/15 07:53:33;;;;;;;23.27;21.60;;;;;;;;;;5035320;28;20450;-84
2022/05/15 07:56:03;;;;;;;24.27;22.50;;;;;;;;;;5035165;28;20444;-82
2022/05/15 07:58:31;;;;;;;24.97;23.10;;;;;;;;;;5034849;28;20443;-84
2022/05/15 08:01:03;;;;;;;24.43;22.53;;;;;;;;;;5035068;28;20531;-82
2022/05/15 08:03:33;;;;;;;22.70;21.40;;;;;;;;;;5034944;28;20440;-82
2022/05/15 08:08:47;;;;;;;24.60;22.77;;;;;;;;;;5034930;28;20544;-82
2022/05/15 08:11:14;;;;;;;24.83;22.67;;;;;;;;;;5034672;28;20411;-83
2022/05/15 08:13:41;;;;;;;24.57;22.70;;;;;;;;;;5034861;28;20418;-87
2022/05/15 08:16:09;;;;;;;25.50;23.40;;;;;;;;;;5035088;28;20472;-79
2022/05/15 08:24:09;;;;;;;25.10;23.20;;;;;;;;;;5035795;28;20441;-92
2022/05/15 08:26:37;;;;;;;24.30;21.90;;;;;;;;;;5035606;28;20459;-92
2022/05/15 08:29:04;;;;;;;24.90;22.53;;;;;;;;;;5035765;28;20491;-92
2022/05/15 08:31:32;;;;;;;24.37;22.73;;;;;;;;;;5035957;28;20427;-91
2022/05/15 08:33:59;;;;;;;23.20;21.50;;;;;;;;;;5035570;28;20435;-93
2022/05/15 08:36:27;;;;;;;22.47;21.10;;;;;;;;;;5035558;28;20421;-93
2022/05/15 08:38:54;;;;;;;23.17;21.70;;;;;;;;;;5035615;28;20431;-93
2022/05/15 08:41:30;;;;;;;23.17;21.20;;;;;;;;;;5035650;28;20407;-92
2022/05/15 08:44:00;;;;;;;23.23;21.40;;;;;;;;;;5035622;28;20761;-93
2022/05/15 08:46:33;;;;;;;23.83;21.77;;;;;;;;;;5017623;28;20575;-93
2022/05/15 08:49:05;;;;;;;22.40;20.70;;;;;;;;;;5036030;28;20422;-93
2022/05/15 08:51:33;;;;;;;23.10;21.50;;;;;;;;;;5035162;28;20422;-93
2022/05/15 08:54:02;;;;;;;23.47;21.90;;;;;;;;;;5035431;28;20494;-93
2022/05/15 08:56:34;;;;;;;22.40;20.70;;;;;;;;;;5035453;28;20441;-92
2022/05/15 08:59:06;;;;;;;24.40;22.80;;;;;;;;;;5027210;28;20467;-92
2022/05/15 09:01:34;;;;;;;22.83;21.40;;;;;;;;;;5017654;28;20503;-92
2022/05/15 09:04:01;;;;;;;26.07;23.73;;;;;;;;;;5034900;28;20411;-92
2022/05/15 09:06:32;;;;;;;23.63;22.03;;;;;;;;;;5034861;28;20458;-93
2022/05/15 09:09:03;;;;;;;23.77;22.20;;;;;;;;;;5018295;28;20441;-93
2022/05/15 09:11:44;;;;;;;24.57;22.77;;;;;;;;;;5037105;28;20415;-92
2022/05/15 09:14:14;;;;;;;23.70;22.20;;;;;;;;;;5039833;28;20435;-92
2022/05/15 09:16:43;;;;;;;23.60;21.77;;;;;;;;;;5035747;28;20436;-93
2022/05/15 09:19:10;;;;;;;23.83;22.17;;;;;;;;;;5034739;28;20416;-91
2022/05/15 09:21:38;;;;;;;23.67;22.00;;;;;;;;;;5034642;28;20483;-92
2022/05/15 09:24:08;;;;;;;23.50;21.80;;;;;;;;;;5034875;28;20440;-94
2022/05/15 09:26:45;;;;;;;23.93;22.03;;;;;;;;;;5017330;28;20487;-94
2022/05/15 09:29:18;;;;;;;21.93;20.63;;;;;;;;;;5034438;28;20418;-92
2022/05/15 09:31:46;;;;;;;24.93;23.00;;;;;;;;;;5035577;28;20808;-93
2022/05/15 09:34:23;;;;;;;23.60;21.80;;;;;;;;;;5034699;28;20460;-93
2022/05/15 09:36:51;;;;;;;24.23;22.47;;;;;;;;;;5034065;28;20430;-92
2022/05/15 09:39:19;;;;;;;23.20;21.60;;;;;;;;;;5035282;28;20817;-96
2022/05/15 09:44:43;;;;;;;24.33;22.77;;;;;;;;;;5034830;28;20435;-94
2022/05/15 09:47:21;;;;;;;23.90;22.00;;;;;;;;;;5034866;28;20463;-94
2022/05/15 09:49:49;;;;;;;25.20;23.23;;;;;;;;;;5034516;28;20436;-93
2022/05/15 09:52:19;;;;;;;24.00;22.20;;;;;;;;;;5034738;28;20507;-95
2022/05/15 09:54:47;;;;;;;24.23;22.50;;;;;;;;;;5034895;28;20434;-92
2022/05/15 09:57:19;;;;;;;23.73;22.20;;;;;;;;;;5033771;28;20460;-93
2022/05/15 09:59:52;;;;;;;24.30;22.60;;;;;;;;;;5034557;28;20441;-93
2022/05/15 10:02:21;;;;;;;24.17;22.37;;;;;;;;;;5034169;28;20423;-93
2022/05/15 10:04:50;;;;;;;23.93;22.20;;;;;;;;;;5034130;28;20431;-92
2022/05/15 10:07:33;;;;;;;23.80;22.13;;;;;;;;;;5034204;28;21015;-93
2022/05/15 10:10:14;;;;;;;24.10;22.20;;;;;;;;;;5034340;28;20416;-92
2022/05/15 10:12:43;;;;;;;24.37;22.40;;;;;;;;;;5034238;28;20923;-92
2022/05/15 10:15:11;;;;;;;26.00;24.03;;;;;;;;;;5034113;28;20414;-93
2022/05/15 10:17:41;;;;;;;24.57;22.50;;;;;;;;;;5016877;28;20407;-92
2022/05/15 10:20:11;;;;;;;24.23;22.50;;;;;;;;;;5033759;28;20542;-94
2022/05/15 10:22:40;;;;;;;23.53;21.80;;;;;;;;;;5034701;28;20448;-93
2022/05/15 10:25:12;;;;;;;24.83;22.87;;;;;;;;;;5034721;28;20431;-95
2022/05/15 10:27:41;;;;;;;24.00;22.40;;;;;;;;;;5034066;28;20465;-93
2022/05/15 10:30:12;;;;;;;24.30;22.40;;;;;;;;;;5033999;28;20455;-94
2022/05/15 10:32:41;;;;;;;24.47;22.87;;;;;;;;;;5033792;28;20426;-94
2022/05/15 10:35:12;;;;;;;23.47;21.87;;;;;;;;;;5034036;28;20819;-93
2022/05/15 10:37:49;;;;;;;23.93;22.00;;;;;;;;;;5034020;28;20465;-93
2022/05/15 10:40:21;;;;;;;24.03;22.33;;;;;;;;;;5034256;28;20465;-94
2022/05/15 10:42:52;;;;;;;22.50;21.00;;;;;;;;;;5034003;28;20526;-92
2022/05/15 10:45:23;;;;;;;23.53;21.77;;;;;;;;;;5034285;28;20822;-93
2022/05/15 10:47:56;;;;;;;23.23;21.47;;;;;;;;;;5035978;28;20974;-93
2022/05/15 10:50:26;;;;;;;22.83;21.20;;;;;;;;;;5037591;28;20419;-93
2022/05/15 10:52:58;;;;;;;23.03;21.50;;;;;;;;;;5037721;28;20442;-94
2022/05/15 10:58:18;;;;;;;23.93;22.37;;;;;;;;;;5037959;28;20486;-94
2022/05/15 11:00:51;;;;;;;22.93;21.33;;;;;;;;;;5037386;28;20432;-87
2022/05/15 11:03:31;;;;;;;22.33;20.93;;;;;;;;;;5036558;28;20559;-86
2022/05/15 11:06:13;;;;;;;23.93;22.27;;;;;;;;;;5036724;28;20415;-86
2022/05/15 11:08:44;;;;;;;23.57;22.03;;;;;;;;;;5036609;28;20474;-86
2022/05/15 11:11:16;;;;;;;22.53;21.03;;;;;;;;;;5036689;28;20442;-85
2022/05/15 11:13:49;;;;;;;22.97;21.47;;;;;;;;;;5036383;28;20411;-86
2022/05/15 11:16:21;;;;;;;25.73;23.47;;;;;;;;;;5036760;28;20492;-86
2022/05/15 11:19:02;;;;;;;23.70;22.20;;;;;;;;;;5036952;28;20454;-87
2022/05/15 11:21:33;;;;;;;23.93;22.23;;;;;;;;;;5017102;28;20894;-86
2022/05/15 11:24:03;;;;;;;23.87;21.90;;;;;;;;;;5036513;28;20500;-87
2022/05/15 11:26:32;;;;;;;23.63;21.87;;;;;;;;;;5036536;28;20437;-86
2022/05/15 11:29:02;;;;;;;23.63;21.97;;;;;;;;;;5018408;28;20469;-85
2022/05/15 11:31:32;;;;;;;23.47;21.67;;;;;;;;;;5035964;28;20407;-84
2022/05/15 11:34:02;;;;;;;24.83;22.80;;;;;;;;;;5035911;28;20769;-84
2022/05/15 11:36:43;;;;;;;24.13;22.60;;;;;;;;;;5035507;28;20927;-84
2022/05/15 11:39:25;;;;;;;22.30;20.60;;;;;;;;;;5028853;28;20425;-85
2022/05/15 11:42:10;;;;;;;23.23;21.50;;;;;;;;;;5035601;28;20419;-83
2022/05/15 11:44:38;;;;;;;24.50;22.73;;;;;;;;;;5035831;28;20411;-84
2022/05/15 11:47:34;;;;;;;24.77;23.07;;;;;;;;;;5018053;28;20426;-85
2022/05/15 11:50:16;;;;;;;23.73;22.03;;;;;;;;;;4974530;28;20470;-84
2022/05/15 11:53:03;;;;;;;26.77;24.97;;;;;;;;;;4974024;28;20478;-84
2022/05/15 11:55:42;;;;;;;24.23;22.60;;;;;;;;;;4974248;28;20410;-84
2022/05/15 11:58:16;;;;;;;24.17;22.47;;;;;;;;;;4974303;28;20417;-83
2022/05/15 12:00:43;;;;;;;24.50;22.60;;;;;;;;;;4973572;28;20424;-83
2022/05/15 12:03:41;;;;;;;24.10;22.53;;;;;;;;;;4973881;28;20455;-83
2022/05/15 12:06:11;;;;;;;23.70;22.30;;;;;;;;;;4974025;28;20584;-83
2022/05/15 12:08:39;;;;;;;24.50;23.00;;;;;;;;;;4973580;28;20490;-82
2022/05/15 12:11:25;;;;;;;24.20;22.77;;;;;;;;;;4973930;28;20853;-83
2022/05/15 12:13:54;;;;;;;24.60;22.90;;;;;;;;;;4973620;28;20458;-82
2022/05/15 12:16:27;;;;;;;24.23;22.53;;;;;;;;;;4973773;28;20417;-83
2022/05/15 12:18:58;;;;;;;24.10;22.60;;;;;;;;;;4973772;28;20953;-82
2022/05/15 12:21:31;;;;;;;24.60;22.87;;;;;;;;;;4973632;28;20462;-83
2022/05/15 12:26:49;;;;;;;23.47;22.00;;;;;;;;;;5029127;28;20485;-82
2022/05/15 12:29:28;;;;;;;23.80;22.20;;;;;;;;;;5034244;28;20483;-82
2022/05/15 12:31:57;;;;;;;23.97;22.50;;;;;;;;;;5034633;28;21007;-82
2022/05/15 12:34:27;;;;;;;23.93;22.17;;;;;;;;;;5034722;28;20423;-83
2022/05/15 12:36:58;;;;;;;24.53;23.13;;;;;;;;;;5034353;28;20486;-83
2022/05/15 12:39:26;;;;;;;24.37;22.53;;;;;;;;;;5033982;28;20799;-83
2022/05/15 12:41:54;;;;;;;24.80;23.40;;;;;;;;;;5034017;28;20502;-83
2022/05/15 12:44:32;;;;;;;24.93;22.70;;;;;;;;;;5034269;28;20425;-83
2022/05/15 12:47:00;;;;;;;24.00;22.30;;;;;;;;;;5034107;28;20460;-83
2022/05/15 12:49:35;;;;;;;23.00;21.60;;;;;;;;;;5033786;28;21021;-83
2022/05/15 12:52:15;;;;;;;23.47;22.00;;;;;;;;;;5033845;28;20449;-83
2022/05/15 12:54:43;;;;;;;23.57;21.90;;;;;;;;;;5033676;28;20440;-82
2022/05/15 12:57:13;;;;;;;23.60;22.10;;;;;;;;;;5033929;28;20439;-82
2022/05/15 12:59:42;;;;;;;22.47;21.00;;;;;;;;;;5016281;28;20451;-83
2022/05/15 13:02:17;;;;;;;23.67;22.07;;;;;;;;;;5033649;28;20415;-83
2022/05/15 13:04:48;;;;;;;23.60;22.10;;;;;;;;;;5033491;28;20418;-83
2022/05/15 13:07:17;;;;;;;23.37;21.73;;;;;;;;;;5034143;28;20411;-83
2022/05/15 13:09:57;;;;;;;24.40;22.60;;;;;;;;;;5015784;28;20462;-83
2022/05/15 13:12:25;;;;;;;22.73;21.43;;;;;;;;;;5033145;28;20775;-83
2022/05/15 13:14:53;;;;;;;22.90;21.60;;;;;;;;;;5033783;28;20472;-84
2022/05/15 13:17:24;;;;;;;23.90;22.30;;;;;;;;;;5033733;28;20750;-83
2022/05/15 13:19:53;;;;;;;23.70;22.17;;;;;;;;;;5033474;28;20445;-83
2022/05/15 13:22:24;;;;;;;23.53;22.23;;;;;;;;;;5033944;28;20429;-84
2022/05/15 13:24:55;;;;;;;23.50;22.10;;;;;;;;;;5033624;28;20474;-83
2022/05/15 13:27:22;;;;;;;23.37;21.90;;;;;;;;;;5033376;28;20440;-83
2022/05/15 13:29:50;;;;;;;23.43;21.97;;;;;;;;;;5033423;28;20824;-84
2022/05/15 13:32:17;;;;;;;23.30;21.60;;;;;;;;;;5033730;28;20444;-84
2022/05/15 13:34:46;;;;;;;24.70;22.83;;;;;;;;;;5033706;28;20526;-84
2022/05/15 13:37:26;;;;;;;24.63;22.97;;;;;;;;;;5033450;28;20477;-84
2022/05/15 13:45:28;;;;;;;24.10;22.70;;;;;;;;;;5032968;28;20912;-84
2022/05/15 13:48:02;;;;;;;24.20;22.70;;;;;;;;;;5033052;28;20488;-83
2022/05/15 13:50:36;;;;;;;24.43;22.67;;;;;;;;;;5033337;28;20418;-82
2022/05/15 13:53:27;;;;;;;23.37;21.97;;;;;;;;;;5033006;28;20450;-84
2022/05/15 13:55:57;;;;;;;24.27;22.73;;;;;;;;;;5015334;28;20452;-84
2022/05/15 13:58:43;;;;;;;23.73;22.37;;;;;;;;;;5033097;28;20473;-84
2022/05/15 14:01:16;;;;;;;24.93;23.37;;;;;;;;;;5032743;28;20509;-84
2022/05/15 14:03:44;;;;;;;23.93;22.20;;;;;;;;;;5032794;28;20479;-84
2022/05/15 14:06:23;;;;;;;24.30;22.80;;;;;;;;;;5033098;28;20408;-84
2022/05/15 14:09:01;;;;;;;24.37;22.70;;;;;;;;;;5033055;28;20460;-84
2022/05/15 14:11:47;;;;;;;25.03;23.33;;;;;;;;;;5033031;28;20432;-83
2022/05/15 14:14:15;;;;;;;23.53;21.93;;;;;;;;;;5015154;28;20912;-84
2022/05/15 14:16:42;;;;;;;24.83;23.00;;;;;;;;;;5015622;28;20442;-84
2022/05/15 14:19:17;;;;;;;23.23;21.83;;;;;;;;;;5015202;28;20418;-83
2022/05/15 14:21:58;;;;;;;23.87;22.37;;;;;;;;;;5032924;28;20525;-84
2022/05/15 14:24:26;;;;;;;23.73;22.33;;;;;;;;;;5036641;28;21003;-84
2022/05/15 14:26:55;;;;;;;23.53;22.03;;;;;;;;;;5037153;28;20417;-84
2022/05/15 14:29:23;;;;;;;24.40;22.73;;;;;;;;;;5036988;28;20467;-84
2022/05/15 14:31:50;;;;;;;24.00;22.70;;;;;;;;;;5036919;28;20418;-84
2022/05/15 14:34:18;;;;;;;24.77;23.07;;;;;;;;;;5036460;28;20877;-84
2022/05/15 14:37:07;;;;;;;25.07;23.47;;;;;;;;;;5036609;28;20406;-83
2022/05/15 14:39:35;;;;;;;24.87;23.33;;;;;;;;;;5019035;28;20481;-84
2022/05/15 14:42:04;;;;;;;24.10;22.67;;;;;;;;;;5036418;28;20423;-84
2022/05/15 14:44:32;;;;;;;24.30;22.70;;;;;;;;;;5036926;28;20419;-84
2022/05/15 14:47:00;;;;;;;23.80;22.23;;;;;;;;;;5037030;28;20448;-84
2022/05/15 14:49:28;;;;;;;24.20;22.70;;;;;;;;;;5036574;28;20479;-84
2022/05/15 14:51:55;;;;;;;24.87;23.53;;;;;;;;;;5036269;28;20467;-84
2022/05/15 14:54:24;;;;;;;25.30;23.70;;;;;;;;;;5036719;28;20446;-85
2022/05/15 14:56:52;;;;;;;24.50;22.93;;;;;;;;;;5019204;28;20431;-84
2022/05/15 14:59:22;;;;;;;24.00;22.50;;;;;;;;;;5036506;28;20435;-84